sensor_id;sensor_type;location;lat;lon;timestamp;P1;durP1;ratioP1;P2;durP2;ratioP2
77076;SDS011;66003;52.286;104.306;2023-11-18T00:01:25;12.70;;;6.20;;
77076;SDS011;66003;52.286;104.306;2023-11-18T00:03:57;13.15;;;5.80;;
77076;SDS011;66003;52.286;104.306;2023-11-18T00:06:23;10.88;;;4.72;;
77076;SDS011;66003;52.286;104.306;2023-11-18T00:08:49;15.60;;;5.75;;
77076;SDS011;66003;52.286;104.306;2023-11-18T00:11:15;15.40;;;6.85;;
77076;SDS011;66003;52.286;104.306;2023-11-18T00:13:42;13.98;;;5.60;;
77076;SDS011;66003;52.286;104.306;2023-11-18T00:16:08;11.55;;;5.63;;
77076;SDS011;66003;52.286;104.306;2023-11-18T00:18:41;17.65;;;5.97;;
77076;SDS011;66003;52.286;104.306;2023-11-18T00:21:08;19.23;;;10.40;;
77076;SDS011;66003;52.286;104.306;2023-11-18T00:23:35;18.25;;;7.85;;
77076;SDS011;66003;52.286;104.306;2023-11-18T00:26:01;19.38;;;7.85;;
77076;SDS011;66003;52.286;104.306;2023-11-18T00:28:28;21.25;;;8.65;;
77076;SDS011;66003;52.286;104.306;2023-11-18T00:30:54;13.90;;;7.82;;
77076;SDS011;66003;52.286;104.306;2023-11-18T00:33:21;20.25;;;9.98;;
77076;SDS011;66003;52.286;104.306;2023-11-18T00:35:47;20.83;;;9.40;;
77076;SDS011;66003;52.286;104.306;2023-11-18T00:38:14;22.50;;;11.00;;
77076;SDS011;66003;52.286;104.306;2023-11-18T00:40:40;22.98;;;9.85;;
77076;SDS011;66003;52.286;104.306;2023-11-18T00:43:06;18.85;;;9.27;;
77076;SDS011;66003;52.286;104.306;2023-11-18T00:47:59;18.13;;;8.35;;
77076;SDS011;66003;52.286;104.306;2023-11-18T00:50:25;20.55;;;8.05;;
77076;SDS011;66003;52.286;104.306;2023-11-18T00:52:52;22.90;;;9.13;;
77076;SDS011;66003;52.286;104.306;2023-11-18T00:55:18;21.63;;;9.30;;
77076;SDS011;66003;52.286;104.306;2023-11-18T00:57:45;30.10;;;11.48;;
77076;SDS011;66003;52.286;104.306;2023-11-18T01:00:12;20.92;;;9.95;;
77076;SDS011;66003;52.286;104.306;2023-11-18T01:02:43;24.15;;;10.55;;
77076;SDS011;66003;52.286;104.306;2023-11-18T01:05:09;23.80;;;10.18;;
77076;SDS011;66003;52.286;104.306;2023-11-18T01:07:37;28.20;;;14.35;;
77076;SDS011;66003;52.286;104.306;2023-11-18T01:10:04;23.10;;;10.13;;
77076;SDS011;66003;52.286;104.306;2023-11-18T01:12:33;25.75;;;11.57;;
77076;SDS011;66003;52.286;104.306;2023-11-18T01:15:00;28.48;;;12.77;;
77076;SDS011;66003;52.286;104.306;2023-11-18T01:17:29;28.45;;;12.45;;
77076;SDS011;66003;52.286;104.306;2023-11-18T01:19:57;24.30;;;12.18;;
77076;SDS011;66003;52.286;104.306;2023-11-18T01:22:24;30.42;;;12.38;;
77076;SDS011;66003;52.286;104.306;2023-11-18T01:24:50;29.65;;;18.48;;
77076;SDS011;66003;52.286;104.306;2023-11-18T01:27:16;25.70;;;11.05;;
77076;SDS011;66003;52.286;104.306;2023-11-18T01:29:45;26.40;;;13.63;;
77076;SDS011;66003;52.286;104.306;2023-11-18T01:32:13;22.08;;;10.40;;
77076;SDS011;66003;52.286;104.306;2023-11-18T01:34:40;23.10;;;10.68;;
77076;SDS011;66003;52.286;104.306;2023-11-18T01:37:06;20.95;;;9.95;;
77076;SDS011;66003;52.286;104.306;2023-11-18T01:39:33;25.20;;;10.25;;
77076;SDS011;66003;52.286;104.306;2023-11-18T01:42:00;15.45;;;9.45;;
77076;SDS011;66003;52.286;104.306;2023-11-18T01:44:26;45.38;;;16.48;;
77076;SDS011;66003;52.286;104.306;2023-11-18T01:46:56;61.10;;;27.65;;
77076;SDS011;66003;52.286;104.306;2023-11-18T01:49:22;51.10;;;20.70;;
77076;SDS011;66003;52.286;104.306;2023-11-18T01:51:50;28.85;;;11.85;;
77076;SDS011;66003;52.286;104.306;2023-11-18T01:54:19;26.90;;;12.27;;
77076;SDS011;66003;52.286;104.306;2023-11-18T01:56:48;26.30;;;11.60;;
77076;SDS011;66003;52.286;104.306;2023-11-18T02:01:48;29.48;;;13.48;;
77076;SDS011;66003;52.286;104.306;2023-11-18T02:04:19;40.25;;;18.15;;
77076;SDS011;66003;52.286;104.306;2023-11-18T02:06:49;38.30;;;15.80;;
77076;SDS011;66003;52.286;104.306;2023-11-18T02:09:16;35.05;;;14.75;;
77076;SDS011;66003;52.286;104.306;2023-11-18T02:11:54;33.15;;;15.18;;
77076;SDS011;66003;52.286;104.306;2023-11-18T02:14:30;33.22;;;15.45;;
77076;SDS011;66003;52.286;104.306;2023-11-18T02:17:00;34.30;;;14.68;;
77076;SDS011;66003;52.286;104.306;2023-11-18T02:19:29;26.20;;;14.43;;
77076;SDS011;66003;52.286;104.306;2023-11-18T02:21:57;24.67;;;11.40;;
77076;SDS011;66003;52.286;104.306;2023-11-18T02:26:56;33.80;;;13.73;;
77076;SDS011;66003;52.286;104.306;2023-11-18T02:29:24;21.10;;;8.10;;
77076;SDS011;66003;52.286;104.306;2023-11-18T02:31:52;22.27;;;11.85;;
77076;SDS011;66003;52.286;104.306;2023-11-18T02:34:26;28.20;;;10.60;;
77076;SDS011;66003;52.286;104.306;2023-11-18T02:36:57;10.80;;;5.22;;
77076;SDS011;66003;52.286;104.306;2023-11-18T02:39:46;19.17;;;8.13;;
77076;SDS011;66003;52.286;104.306;2023-11-18T02:42:19;13.75;;;6.10;;
77076;SDS011;66003;52.286;104.306;2023-11-18T02:44:48;36.58;;;16.17;;
77076;SDS011;66003;52.286;104.306;2023-11-18T02:47:25;45.03;;;19.70;;
77076;SDS011;66003;52.286;104.306;2023-11-18T02:49:55;37.78;;;14.18;;
77076;SDS011;66003;52.286;104.306;2023-11-18T02:52:22;44.42;;;19.15;;
77076;SDS011;66003;52.286;104.306;2023-11-18T02:54:48;44.30;;;22.00;;
77076;SDS011;66003;52.286;104.306;2023-11-18T02:57:14;28.83;;;14.38;;
77076;SDS011;66003;52.286;104.306;2023-11-18T02:59:40;42.58;;;17.38;;
77076;SDS011;66003;52.286;104.306;2023-11-18T03:02:07;21.58;;;9.65;;
77076;SDS011;66003;52.286;104.306;2023-11-18T03:04:33;29.15;;;14.05;;
77076;SDS011;66003;52.286;104.306;2023-11-18T03:06:59;35.97;;;16.73;;
77076;SDS011;66003;52.286;104.306;2023-11-18T03:09:26;37.70;;;15.98;;
77076;SDS011;66003;52.286;104.306;2023-11-18T03:11:53;28.60;;;17.55;;
77076;SDS011;66003;52.286;104.306;2023-11-18T03:14:20;26.30;;;12.18;;
77076;SDS011;66003;52.286;104.306;2023-11-18T03:16:46;24.20;;;12.40;;
77076;SDS011;66003;52.286;104.306;2023-11-18T03:19:13;27.05;;;12.40;;
77076;SDS011;66003;52.286;104.306;2023-11-18T03:21:39;28.40;;;13.13;;
77076;SDS011;66003;52.286;104.306;2023-11-18T03:24:05;30.80;;;14.32;;
77076;SDS011;66003;52.286;104.306;2023-11-18T03:26:32;32.58;;;14.48;;
77076;SDS011;66003;52.286;104.306;2023-11-18T03:28:58;30.13;;;15.48;;
77076;SDS011;66003;52.286;104.306;2023-11-18T03:31:24;20.67;;;9.45;;
77076;SDS011;66003;52.286;104.306;2023-11-18T03:33:51;24.70;;;12.13;;
77076;SDS011;66003;52.286;104.306;2023-11-18T03:36:17;24.25;;;13.77;;
77076;SDS011;66003;52.286;104.306;2023-11-18T03:38:43;28.27;;;12.85;;
77076;SDS011;66003;52.286;104.306;2023-11-18T03:41:10;28.02;;;13.18;;
77076;SDS011;66003;52.286;104.306;2023-11-18T03:43:38;31.08;;;14.65;;
77076;SDS011;66003;52.286;104.306;2023-11-18T03:46:04;24.55;;;11.68;;
77076;SDS011;66003;52.286;104.306;2023-11-18T03:48:30;27.55;;;13.93;;
77076;SDS011;66003;52.286;104.306;2023-11-18T03:50:56;24.38;;;11.80;;
77076;SDS011;66003;52.286;104.306;2023-11-18T03:53:22;23.95;;;10.27;;
77076;SDS011;66003;52.286;104.306;2023-11-18T03:55:48;25.85;;;12.55;;
77076;SDS011;66003;52.286;104.306;2023-11-18T03:58:17;20.45;;;10.73;;
77076;SDS011;66003;52.286;104.306;2023-11-18T04:00:43;27.30;;;11.73;;
77076;SDS011;66003;52.286;104.306;2023-11-18T04:03:09;12.50;;;6.13;;
77076;SDS011;66003;52.286;104.306;2023-11-18T04:05:35;29.95;;;12.40;;
77076;SDS011;66003;52.286;104.306;2023-11-18T04:08:03;14.75;;;7.03;;
77076;SDS011;66003;52.286;104.306;2023-11-18T04:10:29;14.57;;;9.73;;
77076;SDS011;66003;52.286;104.306;2023-11-18T04:12:55;28.40;;;12.35;;
77076;SDS011;66003;52.286;104.306;2023-11-18T04:17:49;22.65;;;9.20;;
77076;SDS011;66003;52.286;104.306;2023-11-18T04:20:15;19.27;;;8.85;;
77076;SDS011;66003;52.286;104.306;2023-11-18T04:22:42;22.45;;;9.77;;
77076;SDS011;66003;52.286;104.306;2023-11-18T04:27:36;20.40;;;10.57;;
77076;SDS011;66003;52.286;104.306;2023-11-18T04:30:05;22.10;;;10.80;;
77076;SDS011;66003;52.286;104.306;2023-11-18T04:32:32;11.70;;;6.53;;
77076;SDS011;66003;52.286;104.306;2023-11-18T04:35:00;18.90;;;9.27;;
77076;SDS011;66003;52.286;104.306;2023-11-18T04:37:34;19.23;;;11.55;;
77076;SDS011;66003;52.286;104.306;2023-11-18T04:40:01;25.80;;;12.05;;
77076;SDS011;66003;52.286;104.306;2023-11-18T04:42:30;14.80;;;9.15;;
77076;SDS011;66003;52.286;104.306;2023-11-18T04:44:57;17.63;;;8.18;;
77076;SDS011;66003;52.286;104.306;2023-11-18T04:47:23;21.83;;;14.05;;
77076;SDS011;66003;52.286;104.306;2023-11-18T04:52:17;12.77;;;7.13;;
77076;SDS011;66003;52.286;104.306;2023-11-18T04:54:44;13.45;;;7.18;;
77076;SDS011;66003;52.286;104.306;2023-11-18T04:57:14;16.63;;;7.05;;
77076;SDS011;66003;52.286;104.306;2023-11-18T04:59:42;21.92;;;10.57;;
77076;SDS011;66003;52.286;104.306;2023-11-18T05:02:11;20.23;;;9.80;;
77076;SDS011;66003;52.286;104.306;2023-11-18T05:04:37;14.60;;;7.28;;
77076;SDS011;66003;52.286;104.306;2023-11-18T05:07:03;18.98;;;9.18;;
77076;SDS011;66003;52.286;104.306;2023-11-18T05:09:30;22.73;;;9.90;;
77076;SDS011;66003;52.286;104.306;2023-11-18T05:11:57;25.00;;;12.48;;
77076;SDS011;66003;52.286;104.306;2023-11-18T05:14:25;21.42;;;11.00;;
77076;SDS011;66003;52.286;104.306;2023-11-18T05:16:52;20.95;;;9.18;;
77076;SDS011;66003;52.286;104.306;2023-11-18T05:19:19;12.77;;;7.18;;
77076;SDS011;66003;52.286;104.306;2023-11-18T05:21:46;23.27;;;11.68;;
77076;SDS011;66003;52.286;104.306;2023-11-18T05:24:15;17.65;;;8.15;;
77076;SDS011;66003;52.286;104.306;2023-11-18T05:26:41;13.32;;;6.53;;
77076;SDS011;66003;52.286;104.306;2023-11-18T05:29:07;26.88;;;12.65;;
77076;SDS011;66003;52.286;104.306;2023-11-18T05:31:33;27.58;;;11.80;;
77076;SDS011;66003;52.286;104.306;2023-11-18T05:33:59;12.20;;;4.78;;
77076;SDS011;66003;52.286;104.306;2023-11-18T05:36:25;13.55;;;5.32;;
77076;SDS011;66003;52.286;104.306;2023-11-18T05:39:02;12.38;;;5.57;;
77076;SDS011;66003;52.286;104.306;2023-11-18T05:41:30;9.45;;;4.53;;
77076;SDS011;66003;52.286;104.306;2023-11-18T05:43:57;9.75;;;4.10;;
77076;SDS011;66003;52.286;104.306;2023-11-18T05:46:24;18.88;;;9.35;;
77076;SDS011;66003;52.286;104.306;2023-11-18T05:48:55;14.55;;;7.80;;
77076;SDS011;66003;52.286;104.306;2023-11-18T05:51:22;18.48;;;7.55;;
77076;SDS011;66003;52.286;104.306;2023-11-18T05:53:50;26.02;;;11.63;;
77076;SDS011;66003;52.286;104.306;2023-11-18T05:56:18;15.23;;;7.25;;
77076;SDS011;66003;52.286;104.306;2023-11-18T05:58:45;17.17;;;10.25;;
77076;SDS011;66003;52.286;104.306;2023-11-18T06:01:12;12.50;;;6.63;;
77076;SDS011;66003;52.286;104.306;2023-11-18T06:03:40;23.30;;;12.80;;
77076;SDS011;66003;52.286;104.306;2023-11-18T06:06:08;14.85;;;8.40;;
77076;SDS011;66003;52.286;104.306;2023-11-18T06:08:35;10.55;;;7.22;;
77076;SDS011;66003;52.286;104.306;2023-11-18T06:11:07;7.57;;;3.80;;
77076;SDS011;66003;52.286;104.306;2023-11-18T06:13:42;15.50;;;9.02;;
77076;SDS011;66003;52.286;104.306;2023-11-18T06:16:12;15.75;;;8.10;;
77076;SDS011;66003;52.286;104.306;2023-11-18T06:18:47;8.95;;;5.25;;
77076;SDS011;66003;52.286;104.306;2023-11-18T06:21:25;20.13;;;9.02;;
77076;SDS011;66003;52.286;104.306;2023-11-18T06:23:56;22.20;;;14.13;;
77076;SDS011;66003;52.286;104.306;2023-11-18T06:26:23;23.70;;;10.13;;
77076;SDS011;66003;52.286;104.306;2023-11-18T06:28:55;20.10;;;8.63;;
77076;SDS011;66003;52.286;104.306;2023-11-18T06:31:22;24.48;;;12.00;;
77076;SDS011;66003;52.286;104.306;2023-11-18T06:33:52;20.40;;;8.38;;
77076;SDS011;66003;52.286;104.306;2023-11-18T06:36:18;23.55;;;11.00;;
77076;SDS011;66003;52.286;104.306;2023-11-18T06:38:51;25.35;;;13.35;;
77076;SDS011;66003;52.286;104.306;2023-11-18T06:41:20;8.23;;;5.63;;
77076;SDS011;66003;52.286;104.306;2023-11-18T06:43:51;13.50;;;7.20;;
77076;SDS011;66003;52.286;104.306;2023-11-18T06:46:23;20.67;;;13.27;;
77076;SDS011;66003;52.286;104.306;2023-11-18T06:49:05;9.65;;;5.65;;
77076;SDS011;66003;52.286;104.306;2023-11-18T06:51:33;7.28;;;4.13;;
77076;SDS011;66003;52.286;104.306;2023-11-18T06:54:04;10.57;;;6.00;;
77076;SDS011;66003;52.286;104.306;2023-11-18T06:56:34;3.58;;;2.42;;
77076;SDS011;66003;52.286;104.306;2023-11-18T06:59:06;9.48;;;4.47;;
77076;SDS011;66003;52.286;104.306;2023-11-18T07:01:35;7.75;;;3.95;;
77076;SDS011;66003;52.286;104.306;2023-11-18T07:04:02;17.92;;;7.10;;
77076;SDS011;66003;52.286;104.306;2023-11-18T07:06:28;10.88;;;6.03;;
77076;SDS011;66003;52.286;104.306;2023-11-18T07:08:54;17.13;;;8.57;;
77076;SDS011;66003;52.286;104.306;2023-11-18T07:11:25;13.20;;;7.15;;
77076;SDS011;66003;52.286;104.306;2023-11-18T07:16:22;7.95;;;3.85;;
77076;SDS011;66003;52.286;104.306;2023-11-18T07:18:50;13.07;;;7.47;;
77076;SDS011;66003;52.286;104.306;2023-11-18T07:21:18;4.63;;;3.63;;
77076;SDS011;66003;52.286;104.306;2023-11-18T07:23:45;19.50;;;7.60;;
77076;SDS011;66003;52.286;104.306;2023-11-18T07:26:11;6.22;;;4.95;;
77076;SDS011;66003;52.286;104.306;2023-11-18T07:28:39;8.82;;;5.95;;
77076;SDS011;66003;52.286;104.306;2023-11-18T07:31:07;14.07;;;6.18;;
77076;SDS011;66003;52.286;104.306;2023-11-18T07:33:33;21.75;;;9.00;;
77076;SDS011;66003;52.286;104.306;2023-11-18T07:35:59;16.95;;;6.57;;
77076;SDS011;66003;52.286;104.306;2023-11-18T07:38:27;5.63;;;2.13;;
77076;SDS011;66003;52.286;104.306;2023-11-18T07:40:53;13.88;;;7.93;;
77076;SDS011;66003;52.286;104.306;2023-11-18T07:43:22;20.23;;;8.52;;
77076;SDS011;66003;52.286;104.306;2023-11-18T07:48:17;15.02;;;5.45;;
77076;SDS011;66003;52.286;104.306;2023-11-18T07:50:44;8.98;;;4.70;;
77076;SDS011;66003;52.286;104.306;2023-11-18T07:53:10;19.05;;;8.80;;
77076;SDS011;66003;52.286;104.306;2023-11-18T07:55:37;15.85;;;6.20;;
77076;SDS011;66003;52.286;104.306;2023-11-18T07:58:09;7.32;;;4.93;;
77076;SDS011;66003;52.286;104.306;2023-11-18T08:05:39;20.33;;;7.38;;
77076;SDS011;66003;52.286;104.306;2023-11-18T08:08:12;11.93;;;5.78;;
77076;SDS011;66003;52.286;104.306;2023-11-18T08:10:39;10.10;;;5.10;;
77076;SDS011;66003;52.286;104.306;2023-11-18T08:13:08;23.88;;;10.13;;
77076;SDS011;66003;52.286;104.306;2023-11-18T08:15:37;17.02;;;7.47;;
77076;SDS011;66003;52.286;104.306;2023-11-18T08:18:08;19.33;;;10.38;;
77076;SDS011;66003;52.286;104.306;2023-11-18T08:20:37;14.07;;;7.00;;
77076;SDS011;66003;52.286;104.306;2023-11-18T08:23:03;20.42;;;9.25;;
77076;SDS011;66003;52.286;104.306;2023-11-18T08:25:32;18.95;;;8.65;;
77076;SDS011;66003;52.286;104.306;2023-11-18T08:28:01;19.38;;;10.43;;
77076;SDS011;66003;52.286;104.306;2023-11-18T08:30:29;17.20;;;10.55;;
77076;SDS011;66003;52.286;104.306;2023-11-18T08:32:56;20.15;;;8.38;;
77076;SDS011;66003;52.286;104.306;2023-11-18T08:35:24;14.13;;;8.32;;
77076;SDS011;66003;52.286;104.306;2023-11-18T08:40:17;22.60;;;8.70;;
77076;SDS011;66003;52.286;104.306;2023-11-18T08:42:51;12.20;;;5.03;;
77076;SDS011;66003;52.286;104.306;2023-11-18T08:45:20;24.75;;;10.10;;
77076;SDS011;66003;52.286;104.306;2023-11-18T08:47:48;10.02;;;4.80;;
77076;SDS011;66003;52.286;104.306;2023-11-18T08:50:17;20.30;;;8.35;;
77076;SDS011;66003;52.286;104.306;2023-11-18T08:52:44;17.42;;;8.48;;
77076;SDS011;66003;52.286;104.306;2023-11-18T08:55:13;21.63;;;9.13;;
77076;SDS011;66003;52.286;104.306;2023-11-18T08:57:47;20.63;;;8.52;;
77076;SDS011;66003;52.286;104.306;2023-11-18T09:00:18;19.23;;;11.43;;
77076;SDS011;66003;52.286;104.306;2023-11-18T09:03:02;14.27;;;6.70;;
77076;SDS011;66003;52.286;104.306;2023-11-18T09:05:32;21.98;;;8.65;;
77076;SDS011;66003;52.286;104.306;2023-11-18T09:07:58;19.00;;;7.82;;
77076;SDS011;66003;52.286;104.306;2023-11-18T09:10:28;12.23;;;6.28;;
77076;SDS011;66003;52.286;104.306;2023-11-18T09:12:54;15.60;;;6.03;;
77076;SDS011;66003;52.286;104.306;2023-11-18T09:15:21;20.40;;;9.63;;
77076;SDS011;66003;52.286;104.306;2023-11-18T09:17:48;12.60;;;6.13;;
77076;SDS011;66003;52.286;104.306;2023-11-18T09:20:15;21.25;;;6.60;;
77076;SDS011;66003;52.286;104.306;2023-11-18T09:22:48;13.50;;;5.63;;
77076;SDS011;66003;52.286;104.306;2023-11-18T09:25:15;18.58;;;8.00;;
77076;SDS011;66003;52.286;104.306;2023-11-18T09:27:41;20.73;;;7.00;;
77076;SDS011;66003;52.286;104.306;2023-11-18T09:30:08;15.07;;;6.25;;
77076;SDS011;66003;52.286;104.306;2023-11-18T09:32:40;16.73;;;8.40;;
77076;SDS011;66003;52.286;104.306;2023-11-18T09:37:39;12.43;;;5.57;;
77076;SDS011;66003;52.286;104.306;2023-11-18T09:40:08;17.08;;;7.00;;
77076;SDS011;66003;52.286;104.306;2023-11-18T09:42:40;17.60;;;5.57;;
77076;SDS011;66003;52.286;104.306;2023-11-18T09:45:09;12.30;;;6.20;;
77076;SDS011;66003;52.286;104.306;2023-11-18T09:47:45;12.88;;;5.65;;
77076;SDS011;66003;52.286;104.306;2023-11-18T09:50:19;12.32;;;5.57;;
77076;SDS011;66003;52.286;104.306;2023-11-18T09:52:51;18.10;;;4.97;;
77076;SDS011;66003;52.286;104.306;2023-11-18T09:57:55;16.02;;;5.20;;
77076;SDS011;66003;52.286;104.306;2023-11-18T10:00:29;17.38;;;5.10;;
77076;SDS011;66003;52.286;104.306;2023-11-18T10:03:00;7.93;;;3.70;;
77076;SDS011;66003;52.286;104.306;2023-11-18T10:05:26;11.23;;;4.72;;
77076;SDS011;66003;52.286;104.306;2023-11-18T10:07:56;13.43;;;5.85;;
77076;SDS011;66003;52.286;104.306;2023-11-18T10:10:25;3.80;;;3.22;;
77076;SDS011;66003;52.286;104.306;2023-11-18T10:13:01;13.63;;;5.78;;
77076;SDS011;66003;52.286;104.306;2023-11-18T10:15:34;14.90;;;9.18;;
77076;SDS011;66003;52.286;104.306;2023-11-18T10:18:02;18.27;;;6.82;;
77076;SDS011;66003;52.286;104.306;2023-11-18T10:23:11;19.85;;;6.90;;
77076;SDS011;66003;52.286;104.306;2023-11-18T10:25:52;15.48;;;6.03;;
77076;SDS011;66003;52.286;104.306;2023-11-18T10:31:01;15.60;;;4.30;;
77076;SDS011;66003;52.286;104.306;2023-11-18T10:36:03;13.93;;;6.00;;
77076;SDS011;66003;52.286;104.306;2023-11-18T10:38:31;19.42;;;6.00;;
77076;SDS011;66003;52.286;104.306;2023-11-18T10:40:59;12.00;;;5.03;;
77076;SDS011;66003;52.286;104.306;2023-11-18T10:43:28;9.32;;;3.25;;
77076;SDS011;66003;52.286;104.306;2023-11-18T10:46:03;12.90;;;5.47;;
77076;SDS011;66003;52.286;104.306;2023-11-18T10:48:41;29.73;;;13.07;;
77076;SDS011;66003;52.286;104.306;2023-11-18T10:51:12;27.65;;;11.13;;
77076;SDS011;66003;52.286;104.306;2023-11-18T10:53:40;31.83;;;11.52;;
77076;SDS011;66003;52.286;104.306;2023-11-18T10:56:21;33.17;;;11.25;;
77076;SDS011;66003;52.286;104.306;2023-11-18T10:58:55;28.45;;;12.45;;
77076;SDS011;66003;52.286;104.306;2023-11-18T11:01:28;31.60;;;13.65;;
77076;SDS011;66003;52.286;104.306;2023-11-18T11:03:57;34.33;;;15.35;;
77076;SDS011;66003;52.286;104.306;2023-11-18T11:06:24;34.78;;;15.32;;
77076;SDS011;66003;52.286;104.306;2023-11-18T11:08:51;35.15;;;14.15;;
77076;SDS011;66003;52.286;104.306;2023-11-18T11:11:22;38.85;;;16.40;;
77076;SDS011;66003;52.286;104.306;2023-11-18T11:13:57;29.30;;;13.25;;
77076;SDS011;66003;52.286;104.306;2023-11-18T11:16:28;40.95;;;14.95;;
77076;SDS011;66003;52.286;104.306;2023-11-18T11:19:08;41.88;;;16.95;;
77076;SDS011;66003;52.286;104.306;2023-11-18T11:22:09;41.30;;;17.30;;
77076;SDS011;66003;52.286;104.306;2023-11-18T11:27:28;39.60;;;17.63;;
77076;SDS011;66003;52.286;104.306;2023-11-18T11:30:08;33.38;;;17.55;;
77076;SDS011;66003;52.286;104.306;2023-11-18T11:32:50;40.05;;;17.83;;
77076;SDS011;66003;52.286;104.306;2023-11-18T11:35:22;33.83;;;14.30;;
77076;SDS011;66003;52.286;104.306;2023-11-18T11:37:50;45.60;;;17.98;;
77076;SDS011;66003;52.286;104.306;2023-11-18T11:40:19;37.55;;;16.80;;
77076;SDS011;66003;52.286;104.306;2023-11-18T11:42:50;44.55;;;19.30;;
77076;SDS011;66003;52.286;104.306;2023-11-18T11:45:21;34.38;;;15.55;;
77076;SDS011;66003;52.286;104.306;2023-11-18T11:47:54;42.08;;;17.23;;
77076;SDS011;66003;52.286;104.306;2023-11-18T11:53:52;27.67;;;9.95;;
77076;SDS011;66003;52.286;104.306;2023-11-18T11:56:42;48.17;;;18.55;;
77076;SDS011;66003;52.286;104.306;2023-11-18T11:59:15;41.88;;;21.83;;
77076;SDS011;66003;52.286;104.306;2023-11-18T12:02:01;29.17;;;14.15;;
77076;SDS011;66003;52.286;104.306;2023-11-18T12:04:34;26.85;;;10.75;;
77076;SDS011;66003;52.286;104.306;2023-11-18T12:07:04;39.75;;;20.73;;
77076;SDS011;66003;52.286;104.306;2023-11-18T12:09:31;22.83;;;11.98;;
77076;SDS011;66003;52.286;104.306;2023-11-18T12:12:04;37.22;;;17.83;;
77076;SDS011;66003;52.286;104.306;2023-11-18T12:14:48;13.43;;;8.73;;
77076;SDS011;66003;52.286;104.306;2023-11-18T12:17:16;28.08;;;14.38;;
77076;SDS011;66003;52.286;104.306;2023-11-18T12:19:48;17.35;;;8.65;;
77076;SDS011;66003;52.286;104.306;2023-11-18T12:22:20;17.00;;;8.93;;
77076;SDS011;66003;52.286;104.306;2023-11-18T12:35:25;24.38;;;11.65;;
77076;SDS011;66003;52.286;104.306;2023-11-18T12:38:04;36.22;;;13.98;;
77076;SDS011;66003;52.286;104.306;2023-11-18T12:43:31;26.40;;;11.93;;
77076;SDS011;66003;52.286;104.306;2023-11-18T12:46:11;20.60;;;10.75;;
77076;SDS011;66003;52.286;104.306;2023-11-18T12:49:02;35.65;;;15.30;;
77076;SDS011;66003;52.286;104.306;2023-11-18T12:51:30;25.75;;;10.60;;
77076;SDS011;66003;52.286;104.306;2023-11-18T12:54:00;16.55;;;5.32;;
77076;SDS011;66003;52.286;104.306;2023-11-18T12:56:28;28.13;;;11.30;;
77076;SDS011;66003;52.286;104.306;2023-11-18T12:58:55;35.97;;;15.63;;
77076;SDS011;66003;52.286;104.306;2023-11-18T13:01:22;21.05;;;10.88;;
77076;SDS011;66003;52.286;104.306;2023-11-18T13:03:48;29.15;;;11.85;;
77076;SDS011;66003;52.286;104.306;2023-11-18T13:06:14;26.15;;;9.93;;
77076;SDS011;66003;52.286;104.306;2023-11-18T13:08:42;26.77;;;8.98;;
77076;SDS011;66003;52.286;104.306;2023-11-18T13:11:09;24.77;;;10.38;;
77076;SDS011;66003;52.286;104.306;2023-11-18T13:13:42;30.35;;;11.70;;
77076;SDS011;66003;52.286;104.306;2023-11-18T13:16:08;11.65;;;5.47;;
77076;SDS011;66003;52.286;104.306;2023-11-18T13:18:44;38.97;;;15.98;;
77076;SDS011;66003;52.286;104.306;2023-11-18T13:21:15;18.40;;;8.65;;
77076;SDS011;66003;52.286;104.306;2023-11-18T13:23:45;20.45;;;9.68;;
77076;SDS011;66003;52.286;104.306;2023-11-18T13:26:14;25.65;;;11.40;;
77076;SDS011;66003;52.286;104.306;2023-11-18T13:28:41;14.48;;;7.68;;
77076;SDS011;66003;52.286;104.306;2023-11-18T13:31:12;10.85;;;4.78;;
77076;SDS011;66003;52.286;104.306;2023-11-18T13:33:48;5.45;;;2.22;;
77076;SDS011;66003;52.286;104.306;2023-11-18T13:36:14;13.05;;;6.53;;
77076;SDS011;66003;52.286;104.306;2023-11-18T13:38:41;22.35;;;12.20;;
77076;SDS011;66003;52.286;104.306;2023-11-18T13:41:07;24.23;;;10.40;;
77076;SDS011;66003;52.286;104.306;2023-11-18T13:44:07;16.80;;;6.82;;
77076;SDS011;66003;52.286;104.306;2023-11-18T13:46:28;8.55;;;4.38;;
77076;SDS011;66003;52.286;104.306;2023-11-18T13:48:54;9.40;;;3.75;;
77076;SDS011;66003;52.286;104.306;2023-11-18T13:51:20;13.90;;;5.68;;
77076;SDS011;66003;52.286;104.306;2023-11-18T13:53:47;22.15;;;12.07;;
77076;SDS011;66003;52.286;104.306;2023-11-18T13:56:14;18.58;;;8.07;;
77076;SDS011;66003;52.286;104.306;2023-11-18T14:01:21;14.68;;;6.40;;
77076;SDS011;66003;52.286;104.306;2023-11-18T14:03:47;24.02;;;8.77;;
77076;SDS011;66003;52.286;104.306;2023-11-18T14:06:13;19.38;;;7.90;;
77076;SDS011;66003;52.286;104.306;2023-11-18T14:08:43;21.65;;;8.48;;
77076;SDS011;66003;52.286;104.306;2023-11-18T14:11:10;14.60;;;6.53;;
77076;SDS011;66003;52.286;104.306;2023-11-18T14:13:36;17.08;;;7.53;;
77076;SDS011;66003;52.286;104.306;2023-11-18T14:16:03;8.82;;;4.20;;
77076;SDS011;66003;52.286;104.306;2023-11-18T14:18:35;21.67;;;7.93;;
77076;SDS011;66003;52.286;104.306;2023-11-18T14:21:02;15.88;;;7.32;;
77076;SDS011;66003;52.286;104.306;2023-11-18T14:23:28;23.67;;;10.40;;
77076;SDS011;66003;52.286;104.306;2023-11-18T14:25:54;11.48;;;5.15;;
77076;SDS011;66003;52.286;104.306;2023-11-18T14:30:51;19.65;;;8.70;;
77076;SDS011;66003;52.286;104.306;2023-11-18T14:33:18;18.25;;;8.68;;
77076;SDS011;66003;52.286;104.306;2023-11-18T14:35:45;11.18;;;5.05;;
77076;SDS011;66003;52.286;104.306;2023-11-18T14:38:12;16.20;;;5.97;;
77076;SDS011;66003;52.286;104.306;2023-11-18T14:40:38;18.02;;;5.40;;
77076;SDS011;66003;52.286;104.306;2023-11-18T14:43:07;8.30;;;3.25;;
77076;SDS011;66003;52.286;104.306;2023-11-18T14:45:34;6.28;;;3.13;;
77076;SDS011;66003;52.286;104.306;2023-11-18T14:48:00;15.52;;;7.22;;
77076;SDS011;66003;52.286;104.306;2023-11-18T14:50:28;9.30;;;4.57;;
77076;SDS011;66003;52.286;104.306;2023-11-18T14:52:54;19.67;;;6.85;;
77076;SDS011;66003;52.286;104.306;2023-11-18T14:55:28;12.52;;;5.55;;
77076;SDS011;66003;52.286;104.306;2023-11-18T15:00:22;16.60;;;6.40;;
77076;SDS011;66003;52.286;104.306;2023-11-18T15:02:51;8.25;;;7.18;;
77076;SDS011;66003;52.286;104.306;2023-11-18T15:05:21;15.00;;;4.95;;
77076;SDS011;66003;52.286;104.306;2023-11-18T15:07:49;6.00;;;2.95;;
77076;SDS011;66003;52.286;104.306;2023-11-18T15:12:56;4.75;;;2.70;;
77076;SDS011;66003;52.286;104.306;2023-11-18T15:15:46;15.57;;;6.10;;
77076;SDS011;66003;52.286;104.306;2023-11-18T15:18:16;16.27;;;7.25;;
77076;SDS011;66003;52.286;104.306;2023-11-18T15:20:43;10.68;;;5.93;;
77076;SDS011;66003;52.286;104.306;2023-11-18T15:23:10;6.53;;;2.42;;
77076;SDS011;66003;52.286;104.306;2023-11-18T15:25:36;10.88;;;4.78;;
77076;SDS011;66003;52.286;104.306;2023-11-18T15:28:03;11.80;;;6.22;;